createdAt,value
2022-08-20T00:01:42.244Z,22.39
2022-08-20T00:04:46.136Z,22.31
2022-08-20T00:07:50.352Z,22.34
2022-08-20T00:10:55.695Z,22.41
2022-08-20T00:14:03.645Z,22.40
2022-08-20T00:17:06.943Z,22.40
2022-08-20T00:20:13.427Z,22.38
2022-08-20T00:23:17.951Z,22.35
2022-08-20T00:26:21.233Z,22.37
2022-08-20T00:29:24.501Z,22.45
2022-08-20T00:32:27.281Z,22.45
2022-08-20T00:35:34.182Z,22.47
2022-08-20T00:38:39.121Z,22.40
2022-08-20T00:41:42.303Z,22.44
2022-08-20T00:44:47.846Z,22.42
2022-08-20T00:47:51.985Z,22.41
2022-08-20T00:50:58.261Z,22.40
2022-08-20T00:54:21.777Z,22.36
2022-08-20T00:57:59.704Z,22.34
2022-08-20T01:00:54.038Z,22.31
2022-08-20T01:03:57.694Z,22.25
2022-08-20T01:07:01.522Z,22.22
2022-08-20T01:10:09.476Z,22.16
2022-08-20T01:13:16.048Z,22.22
2022-08-20T01:16:23.079Z,22.21
2022-08-20T01:19:32.228Z,22.22
2022-08-20T01:23:23.438Z,22.22
2022-08-20T01:26:32.465Z,22.27
2022-08-20T01:29:38.941Z,22.04
2022-08-20T01:32:42.608Z,21.50
2022-08-20T01:35:45.820Z,21.96
2022-08-20T01:38:53.961Z,22.05
2022-08-20T01:42:19.731Z,22.05
2022-08-20T01:45:26.967Z,21.99
2022-08-20T01:48:31.096Z,22.04
2022-08-20T01:51:34.574Z,21.91
2022-08-20T01:54:38.188Z,21.90
2022-08-20T01:57:43.649Z,21.86
2022-08-20T02:00:46.607Z,21.91
2022-08-20T02:03:50.245Z,21.96
2022-08-20T02:06:59.653Z,21.88
2022-08-20T02:10:04.270Z,21.91
2022-08-20T02:13:09.932Z,21.92
2022-08-20T02:16:13.201Z,21.99
2022-08-20T02:19:22.820Z,21.81
2022-08-20T02:22:50.617Z,21.92
2022-08-20T02:25:54.130Z,21.83
2022-08-20T02:28:57.732Z,21.80
2022-08-20T02:32:32.027Z,21.83
2022-08-20T02:35:30.549Z,21.79
2022-08-20T02:38:35.418Z,21.72
2022-08-20T02:41:39.598Z,21.68
2022-08-20T02:44:44.299Z,21.69
2022-08-20T02:47:47.607Z,21.75
2022-08-20T02:50:59.186Z,21.85
2022-08-20T02:54:02.272Z,21.90
2022-08-20T02:57:06.296Z,21.86
2022-08-20T03:00:15.431Z,21.91
2022-08-20T03:03:22.727Z,21.91
2022-08-20T03:06:27.818Z,21.83
2022-08-20T03:09:31.023Z,21.88
2022-08-20T03:12:34.524Z,21.80
2022-08-20T03:15:39.374Z,21.86
2022-08-20T03:18:44.845Z,21.92
2022-08-20T03:21:48.087Z,21.81
2022-08-20T03:24:51.063Z,21.77
2022-08-20T03:27:57.686Z,21.64
2022-08-20T03:31:01.595Z,21.47
2022-08-20T03:34:05.410Z,21.44
2022-08-20T03:37:09.362Z,21.35
2022-08-20T03:40:20.732Z,21.20
2022-08-20T03:43:24.423Z,21.11
2022-08-20T03:46:27.604Z,21.11
2022-08-20T03:49:31.844Z,21.07
2022-08-20T03:52:35.940Z,21.06
2022-08-20T03:55:40.534Z,21.07
2022-08-20T03:58:44.419Z,21.01
2022-08-20T04:01:47.525Z,21.08
2022-08-20T04:04:51.253Z,21.12
2022-08-20T04:07:55.255Z,21.18
2022-08-20T04:11:00.401Z,21.19
2022-08-20T04:14:03.610Z,21.22
2022-08-20T04:17:10.065Z,21.27
2022-08-20T04:20:16.078Z,21.41
2022-08-20T04:23:21.360Z,21.53
2022-08-20T04:26:25.632Z,21.58
2022-08-20T04:29:31.848Z,21.71
2022-08-20T04:32:37.657Z,21.65
2022-08-20T04:35:41.710Z,21.78
2022-08-20T04:38:49.793Z,21.87
2022-08-20T04:41:54.582Z,21.97
2022-08-20T04:44:57.485Z,21.97
2022-08-20T04:48:06.706Z,22.03
2022-08-20T04:51:11.013Z,22.08
2022-08-20T04:54:14.906Z,22.07
2022-08-20T04:57:17.907Z,22.14
2022-08-20T05:00:21.511Z,22.00
2022-08-20T05:03:24.712Z,22.34
2022-08-20T05:06:31.845Z,22.38
2022-08-20T05:09:43.646Z,22.45
2022-08-20T05:12:56.667Z,22.44
2022-08-20T05:16:02.117Z,22.37
2022-08-20T05:19:08.916Z,22.26
2022-08-20T05:22:11.978Z,22.15
2022-08-20T05:25:15.268Z,21.95
2022-08-20T05:28:24.989Z,21.88
2022-08-20T05:31:31.376Z,21.87
2022-08-20T05:34:36.853Z,21.97
2022-08-20T05:37:42.976Z,22.10
2022-08-20T05:40:46.183Z,22.20
2022-08-20T05:43:51.553Z,22.32
2022-08-20T05:46:54.261Z,22.38
2022-08-20T05:49:58.706Z,22.34
2022-08-20T05:53:02.391Z,22.41
2022-08-20T05:56:05.636Z,22.44
2022-08-20T05:59:10.971Z,22.55
2022-08-20T06:02:33.948Z,22.74
2022-08-20T06:05:37.683Z,22.85
2022-08-20T06:08:41.829Z,23.01
2022-08-20T06:11:45.473Z,23.08
2022-08-20T06:14:48.658Z,23.15
2022-08-20T06:17:58.334Z,23.29
2022-08-20T06:21:01.775Z,23.42
2022-08-20T06:24:08.055Z,23.55
2022-08-20T06:27:14.910Z,23.57
2022-08-20T06:30:18.485Z,23.72
2022-08-20T06:33:21.378Z,23.90
2022-08-20T06:36:26.396Z,24.02
2022-08-20T06:39:31.201Z,24.15
2022-08-20T06:42:35.057Z,24.29
2022-08-20T06:45:39.297Z,24.39
2022-08-20T06:48:43.356Z,24.32
2022-08-20T06:51:52.071Z,24.44
2022-08-20T06:54:55.614Z,24.50
2022-08-20T06:58:06.246Z,24.61
2022-08-20T07:01:11.503Z,24.88
2022-08-20T07:04:16.101Z,25.14
2022-08-20T07:07:20.671Z,25.36
2022-08-20T07:10:25.312Z,25.36
2022-08-20T07:13:29.702Z,25.41
2022-08-20T07:16:33.276Z,25.40
2022-08-20T07:19:37.699Z,25.48
2022-08-20T07:22:42.502Z,25.61
2022-08-20T07:25:46.340Z,25.69
2022-08-20T07:28:50.259Z,25.67
2022-08-20T07:32:12.337Z,25.70
2022-08-20T07:35:18.121Z,25.71
2022-08-20T07:38:26.800Z,25.76
2022-08-20T07:41:29.805Z,25.81
2022-08-20T07:44:34.118Z,25.92
2022-08-20T07:47:39.384Z,25.83
2022-08-20T07:50:43.188Z,25.78
2022-08-20T07:53:47.300Z,25.72
2022-08-20T07:56:50.541Z,25.65
2022-08-20T07:59:55.104Z,25.36
2022-08-20T08:02:59.225Z,25.08
2022-08-20T08:06:02.843Z,24.80
2022-08-20T08:09:11.115Z,24.63
2022-08-20T08:12:15.219Z,24.50
2022-08-20T08:15:23.876Z,24.44
2022-08-20T08:18:31.991Z,24.38
2022-08-20T08:21:35.277Z,24.15
2022-08-20T08:24:39.317Z,23.94
2022-08-20T08:27:43.549Z,23.51
2022-08-20T08:30:49.070Z,22.75
2022-08-20T08:33:52.427Z,22.02
2022-08-20T08:36:56.714Z,21.48
2022-08-20T08:40:01.544Z,21.28
2022-08-20T08:43:05.635Z,21.15
2022-08-20T08:46:12.924Z,20.89
2022-08-20T08:49:30.138Z,20.70
2022-08-20T08:52:44.062Z,20.66
2022-08-20T08:55:48.034Z,20.67
2022-08-20T08:58:51.470Z,20.78
2022-08-20T09:01:57.587Z,20.76
2022-08-20T09:05:04.084Z,20.68
2022-08-20T09:08:16.333Z,20.66
2022-08-20T09:11:23.000Z,20.65
2022-08-20T09:14:26.498Z,20.64
2022-08-20T09:17:34.144Z,20.67
2022-08-20T09:20:38.136Z,20.65
2022-08-20T09:23:42.001Z,20.57
2022-08-20T09:26:46.104Z,20.28
2022-08-20T09:29:50.768Z,20.33
2022-08-20T09:32:54.213Z,20.26
2022-08-20T09:35:58.338Z,20.17
2022-08-20T09:39:03.557Z,20.08
2022-08-20T09:42:15.040Z,20.22
2022-08-20T09:45:18.605Z,20.23
2022-08-20T09:48:32.007Z,20.27
2022-08-20T09:51:38.494Z,20.20
2022-08-20T09:54:42.317Z,20.19
2022-08-20T09:57:51.383Z,20.27
2022-08-20T10:00:56.763Z,20.40
2022-08-20T10:04:00.490Z,20.34
2022-08-20T10:07:08.862Z,20.38
2022-08-20T10:10:15.063Z,20.44
2022-08-20T10:13:18.446Z,20.47
2022-08-20T10:16:22.021Z,20.58
2022-08-20T10:19:25.303Z,20.59
2022-08-20T10:22:29.396Z,20.78
2022-08-20T10:25:33.254Z,20.88
2022-08-20T10:28:38.233Z,20.81
2022-08-20T10:31:41.196Z,20.86
2022-08-20T10:34:48.204Z,20.59
2022-08-20T10:37:51.981Z,20.68
2022-08-20T10:40:56.703Z,20.61
2022-08-20T10:44:00.313Z,20.42
2022-08-20T10:47:25.235Z,20.48
2022-08-20T10:50:30.317Z,20.40
2022-08-20T10:53:35.338Z,20.20
2022-08-20T10:56:38.852Z,20.19
2022-08-20T10:59:46.555Z,20.26
2022-08-20T11:02:49.466Z,20.20
2022-08-20T11:05:53.216Z,20.16
2022-08-20T11:08:57.499Z,20.19
2022-08-20T11:12:01.221Z,20.23
2022-08-20T11:15:05.982Z,20.19
2022-08-20T11:18:14.208Z,20.27
2022-08-20T11:21:17.639Z,20.35
2022-08-20T11:24:20.589Z,20.38
2022-08-20T11:27:30.875Z,20.39
2022-08-20T11:30:36.427Z,20.57
2022-08-20T11:33:42.173Z,20.63
2022-08-20T11:36:46.038Z,20.66
2022-08-20T11:39:49.305Z,20.71
2022-08-20T11:43:13.524Z,20.64
2022-08-20T11:46:17.836Z,20.71
2022-08-20T11:49:21.006Z,20.72
2022-08-20T11:52:28.119Z,20.67
2022-08-20T11:55:32.722Z,20.67
2022-08-20T11:58:36.737Z,20.53
2022-08-20T12:01:40.183Z,20.82
2022-08-20T12:04:44.305Z,20.84
2022-08-20T12:07:47.729Z,20.87
2022-08-20T12:10:51.391Z,20.90
2022-08-20T12:13:54.518Z,20.88
2022-08-20T12:16:58.689Z,20.92
2022-08-20T12:20:07.836Z,20.96
2022-08-20T12:23:14.146Z,20.95
2022-08-20T12:26:18.591Z,20.88
2022-08-20T12:29:26.177Z,20.85
2022-08-20T12:32:31.683Z,20.73
2022-08-20T12:35:35.701Z,20.75
2022-08-20T12:38:41.579Z,20.81
2022-08-20T12:41:45.654Z,20.88
2022-08-20T12:44:51.877Z,20.88
2022-08-20T12:48:01.617Z,20.97
2022-08-20T12:51:04.521Z,21.11
2022-08-20T12:54:09.274Z,21.19
2022-08-20T12:57:22.747Z,21.17
2022-08-20T13:00:31.951Z,21.17
2022-08-20T13:03:40.799Z,21.25
2022-08-20T13:06:48.738Z,21.26
2022-08-20T13:09:53.655Z,21.34
2022-08-20T13:12:58.115Z,21.37
2022-08-20T13:16:02.214Z,21.38
2022-08-20T13:19:05.461Z,21.35
2022-08-20T13:22:11.277Z,21.44
2022-08-20T13:25:14.787Z,21.48
2022-08-20T13:28:19.537Z,21.54
2022-08-20T13:31:23.286Z,21.49
2022-08-20T13:34:27.723Z,21.53
2022-08-20T13:37:31.039Z,21.51
2022-08-20T13:40:34.806Z,21.56
2022-08-20T13:43:38.411Z,21.66
2022-08-20T13:46:42.220Z,21.58
2022-08-20T13:49:47.767Z,21.58
2022-08-20T13:52:51.756Z,21.62
2022-08-20T13:55:55.036Z,21.61
2022-08-20T13:58:59.622Z,21.60
2022-08-20T14:02:06.995Z,21.67
2022-08-20T14:05:11.520Z,21.63
2022-08-20T14:08:23.163Z,21.70
2022-08-20T14:11:26.659Z,21.66
2022-08-20T14:14:29.757Z,21.65
2022-08-20T14:17:37.585Z,21.46
2022-08-20T14:20:41.598Z,21.46
2022-08-20T14:23:44.714Z,21.44
2022-08-20T14:26:48.463Z,21.54
2022-08-20T14:29:52.566Z,21.52
2022-08-20T14:32:56.277Z,21.65
2022-08-20T14:35:59.454Z,21.67
2022-08-20T14:39:03.168Z,21.68
2022-08-20T14:42:09.364Z,21.75
2022-08-20T14:45:14.137Z,21.84
2022-08-20T14:48:19.268Z,21.85
2022-08-20T14:51:22.125Z,21.87
2022-08-20T14:54:26.887Z,21.91
2022-08-20T14:57:30.087Z,21.85
2022-08-20T15:00:34.794Z,21.98
2022-08-20T15:03:39.454Z,21.97
2022-08-20T15:06:44.627Z,21.95
2022-08-20T15:09:48.460Z,21.87
2022-08-20T15:12:52.298Z,21.89
2022-08-20T15:15:58.031Z,21.91
2022-08-20T15:19:02.567Z,21.92
2022-08-20T15:22:05.898Z,21.86
2022-08-20T15:25:14.322Z,21.89
2022-08-20T15:28:18.694Z,21.87
2022-08-20T15:31:23.499Z,21.89
2022-08-20T15:34:30.993Z,21.86
2022-08-20T15:37:35.231Z,21.77
2022-08-20T15:40:38.568Z,21.78
2022-08-20T15:43:42.438Z,21.82
2022-08-20T15:46:45.341Z,21.73
2022-08-20T15:49:50.800Z,21.75
2022-08-20T15:52:56.140Z,21.73
2022-08-20T15:56:20.659Z,21.70
2022-08-20T15:59:58.668Z,21.66
2022-08-20T16:03:39.709Z,21.73
2022-08-20T16:06:43.443Z,21.76
2022-08-20T16:10:20.843Z,21.77
2022-08-20T16:13:45.490Z,21.80
2022-08-20T16:17:02.120Z,21.81
2022-08-20T16:20:13.449Z,21.80
2022-08-20T16:23:20.685Z,21.74
2022-08-20T16:26:23.946Z,21.77
2022-08-20T16:29:43.394Z,21.66
2022-08-20T16:32:50.673Z,21.64
2022-08-20T16:36:04.034Z,21.60
2022-08-20T16:39:12.349Z,21.59
2022-08-20T16:42:19.302Z,21.62
2022-08-20T16:45:47.822Z,21.58
2022-08-20T16:49:08.890Z,21.53
2022-08-20T16:52:12.505Z,21.52
2022-08-20T16:55:16.106Z,21.44
2022-08-20T16:58:23.114Z,21.41
2022-08-20T17:01:26.784Z,21.36
2022-08-20T17:04:31.357Z,21.35
2022-08-20T17:07:46.144Z,21.32
2022-08-20T17:10:57.044Z,21.26
2022-08-20T17:14:10.555Z,21.23
2022-08-20T17:17:40.492Z,21.15
2022-08-20T17:20:45.868Z,21.07
2022-08-20T17:23:57.050Z,21.00
2022-08-20T17:27:02.333Z,20.93
2022-08-20T17:30:19.863Z,20.86
2022-08-20T17:33:25.475Z,20.81
2022-08-20T17:36:29.072Z,20.80
2022-08-20T17:39:32.428Z,20.77
2022-08-20T17:42:49.501Z,20.77
2022-08-20T17:45:56.957Z,20.74
2022-08-20T17:49:02.638Z,20.21
2022-08-20T17:52:17.302Z,20.59
2022-08-20T17:55:22.544Z,20.57
2022-08-20T17:58:39.044Z,20.57
2022-08-20T18:01:47.513Z,20.48
2022-08-20T18:04:52.053Z,20.41
2022-08-20T18:08:06.801Z,20.35
2022-08-20T18:11:20.362Z,20.40
2022-08-20T18:14:47.836Z,20.40
2022-08-20T18:18:18.596Z,20.28
2022-08-20T18:21:43.507Z,20.27
2022-08-20T18:24:56.666Z,20.29
2022-08-20T18:28:07.794Z,20.25
2022-08-20T18:31:25.109Z,20.63
2022-08-20T18:34:32.706Z,20.69
2022-08-20T18:37:37.516Z,20.90
2022-08-20T18:40:42.133Z,20.66
2022-08-20T18:43:46.660Z,20.53
2022-08-20T18:46:55.467Z,20.36
2022-08-20T18:50:23.769Z,20.36
2022-08-20T18:53:36.538Z,20.28
2022-08-20T18:56:44.614Z,20.19
2022-08-20T19:00:16.520Z,20.18
2022-08-20T19:03:30.515Z,20.13
2022-08-20T19:06:57.641Z,20.11
2022-08-20T19:10:28.083Z,20.10
2022-08-20T19:13:51.127Z,20.07
2022-08-20T19:17:06.917Z,20.04
2022-08-20T19:20:22.945Z,20.01
2022-08-20T19:23:31.271Z,19.99
2022-08-20T19:26:43.485Z,19.98
2022-08-20T19:29:56.788Z,19.93
2022-08-20T19:33:01.361Z,19.88
2022-08-20T19:36:28.970Z,19.87
2022-08-20T19:39:37.156Z,19.85
2022-08-20T19:42:42.966Z,19.81
2022-08-20T19:46:00.379Z,19.78
2022-08-20T19:49:12.913Z,19.80
2022-08-20T19:52:30.045Z,19.81
2022-08-20T19:55:36.286Z,19.82
2022-08-20T19:58:40.855Z,19.77
2022-08-20T20:01:58.851Z,19.73
2022-08-20T20:05:07.997Z,19.68
2022-08-20T20:08:12.468Z,19.69
2022-08-20T20:11:21.833Z,19.67
2022-08-20T20:14:31.743Z,19.69
2022-08-20T20:17:38.277Z,19.39
2022-08-20T20:20:57.885Z,19.66
2022-08-20T20:24:03.719Z,19.67
2022-08-20T20:27:15.069Z,19.67
2022-08-20T20:30:32.423Z,19.69
2022-08-20T20:33:43.391Z,19.72
2022-08-20T20:36:49.180Z,19.75
2022-08-20T20:40:01.251Z,19.77
2022-08-20T20:43:10.580Z,19.77
2022-08-20T20:46:22.574Z,19.72
2022-08-20T20:49:37.106Z,19.75
2022-08-20T20:52:54.532Z,19.75
2022-08-20T20:56:01.148Z,19.73
2022-08-20T20:59:07.459Z,19.73
2022-08-20T21:02:12.370Z,19.70
2022-08-20T21:05:20.771Z,19.79
2022-08-20T21:08:26.030Z,19.79
2022-08-20T21:11:34.548Z,19.79
2022-08-20T21:14:40.093Z,19.61
2022-08-20T21:17:42.961Z,19.80
2022-08-20T21:20:48.544Z,19.81
2022-08-20T21:23:51.294Z,19.81
2022-08-20T21:27:01.961Z,19.79
2022-08-20T21:30:08.315Z,19.11
2022-08-20T21:33:12.768Z,19.76
2022-08-20T21:36:17.886Z,19.78
2022-08-20T21:39:21.073Z,19.79
2022-08-20T21:42:29.183Z,19.82
2022-08-20T21:45:36.555Z,19.80
2022-08-20T21:48:44.116Z,19.78
2022-08-20T21:51:51.483Z,19.74
2022-08-20T21:54:56.331Z,19.74
2022-08-20T21:57:59.392Z,19.71
2022-08-20T22:01:04.969Z,19.75
2022-08-20T22:04:07.936Z,19.76
2022-08-20T22:07:11.571Z,19.72
2022-08-20T22:10:14.968Z,19.79
2022-08-20T22:13:18.405Z,19.74
2022-08-20T22:16:24.664Z,19.59
2022-08-20T22:19:28.463Z,19.68
2022-08-20T22:22:33.167Z,19.66
2022-08-20T22:25:36.575Z,19.75
2022-08-20T22:28:40.635Z,19.73
2022-08-20T22:31:44.241Z,19.77
2022-08-20T22:34:47.797Z,19.71
2022-08-20T22:37:50.898Z,19.71
2022-08-20T22:40:55.410Z,19.71
2022-08-20T22:43:58.768Z,19.30
2022-08-20T22:47:08.193Z,19.74
2022-08-20T22:50:12.823Z,19.71
2022-08-20T22:53:18.076Z,19.60
2022-08-20T22:56:21.752Z,19.73
2022-08-20T22:59:27.477Z,19.64
2022-08-20T23:02:32.300Z,19.70
2022-08-20T23:05:37.919Z,19.72
2022-08-20T23:08:42.620Z,19.69
2022-08-20T23:11:46.864Z,19.68
2022-08-20T23:14:52.825Z,19.68
2022-08-20T23:18:00.399Z,19.63
2022-08-20T23:21:03.838Z,19.63
2022-08-20T23:24:07.693Z,19.63
2022-08-20T23:27:19.621Z,19.62
2022-08-20T23:30:24.420Z,19.63
2022-08-20T23:33:27.993Z,19.61
2022-08-20T23:36:31.966Z,19.62
2022-08-20T23:39:35.547Z,19.61
2022-08-20T23:42:39.248Z,19.55
2022-08-20T23:45:43.181Z,19.59
2022-08-20T23:48:46.948Z,19.42
2022-08-20T23:51:49.713Z,19.52
2022-08-20T23:54:52.779Z,19.50
2022-08-20T23:57:55.897Z,19.46
